This is the latest recevied weather packets stored in our database for station/object W3SN-13. If no packets are shown the sender has not sent any weather packets the latest 10 day(s).
| Time | Temp. | Humidity | Pressure | Rain* | Wind** | Luminosity | Snow |
|---|---|---|---|---|---|---|---|
| 1787938160 | 33.33° C | 45% | 1014.1 hPa | 0 mm | - | - | - |
| 1787937558 | 33.33° C | 45% | 1014.3 hPa | 0 mm | - | - | - |
| 1787936957 | 31.67° C | 48% | 1014.4 hPa | 0 mm | - | - | - |
| 1787936355 | 31.67° C | 50% | 1014.4 hPa | 0 mm | - | - | - |
| 1787935750 | 31.67° C | 49% | 1014.5 hPa | 0 mm | - | - | - |
| 1787935149 | 30° C | 50% | 1014.4 hPa | 0 mm | - | - | - |
| 1787934544 | 30° C | 50% | 1014.4 hPa | 0 mm | - | - | - |
| 1787933942 | 29.44° C | 52% | 1014.3 hPa | 0 mm | - | - | - |
| 1787933340 | 28.89° C | 52% | 1014.4 hPa | 0 mm | - | - | - |
| 1787932739 | 28.33° C | 54% | 1014.4 hPa | 0 mm | - | - | - |
| 1787928664 | 28.89° C | 52% | 1014 hPa | 0 mm | - | - | - |
| 1787921818 | 23.89° C | 67% | 1013.4 hPa | 0 mm | - | - | - |
| 1787921217 | 23.89° C | 66% | 1013.3 hPa | 0 mm | - | - | - |
| 1787920615 | 23.89° C | 67% | 1013.3 hPa | 0 mm | - | - | - |
| 1787920013 | 23.89° C | 67% | 1013.2 hPa | 0 mm | - | - | - |
| 1787919412 | 23.89° C | 66% | 1013.2 hPa | 0 mm | - | - | - |
| 1787918811 | 23.89° C | 66% | 1013.2 hPa | 0 mm | - | - | - |
| 1787918209 | 23.89° C | 65% | 1013.2 hPa | 0 mm | - | - | - |
| 1787917608 | 23.89° C | 67% | 1013.2 hPa | 0 mm | - | - | - |
| 1787917007 | 23.89° C | 68% | 1013.1 hPa | 0 mm | - | - | - |
| 1787916405 | 23.89° C | 68% | 1013.2 hPa | 0 mm | - | - | - |
| 1787915803 | 23.89° C | 66% | 1013.1 hPa | 0 mm | - | - | - |
| 1787915201 | 23.89° C | 65% | 1013.1 hPa | 0 mm | - | - | - |
| 1787914600 | 23.89° C | 64% | 1013.1 hPa | 0 mm | - | - | - |
| 1787913999 | 24.44° C | 65% | 1013.1 hPa | 0 mm | - | - | - |
* Rain latest hour (hover to see other rain measurements)
** Current wind speed in m/s (hover to see current wind gust speed)